sensor_id;sensor_type;location;lat;lon;timestamp;P1;durP1;ratioP1;P2;durP2;ratioP2
78406;SDS011;67692;51.074;-1.790;2023-07-20T00:00:13;6.18;;;2.22;;
78406;SDS011;67692;51.074;-1.790;2023-07-20T00:02:40;6.80;;;1.75;;
78406;SDS011;67692;51.074;-1.790;2023-07-20T00:05:07;6.35;;;2.25;;
78406;SDS011;67692;51.074;-1.790;2023-07-20T00:07:33;3.83;;;1.58;;
78406;SDS011;67692;51.074;-1.790;2023-07-20T00:10:00;3.95;;;1.70;;
78406;SDS011;67692;51.074;-1.790;2023-07-20T00:12:26;5.18;;;1.88;;
78406;SDS011;67692;51.074;-1.790;2023-07-20T00:14:53;3.08;;;1.80;;
78406;SDS011;67692;51.074;-1.790;2023-07-20T00:17:21;5.75;;;2.63;;
78406;SDS011;67692;51.074;-1.790;2023-07-20T00:19:47;6.30;;;1.80;;
78406;SDS011;67692;51.074;-1.790;2023-07-20T00:22:14;5.43;;;1.73;;
78406;SDS011;67692;51.074;-1.790;2023-07-20T00:24:41;3.78;;;1.88;;
78406;SDS011;67692;51.074;-1.790;2023-07-20T00:27:07;3.30;;;1.70;;
78406;SDS011;67692;51.074;-1.790;2023-07-20T00:29:34;5.63;;;1.80;;
78406;SDS011;67692;51.074;-1.790;2023-07-20T00:32:01;4.32;;;2.22;;
78406;SDS011;67692;51.074;-1.790;2023-07-20T00:34:31;7.32;;;2.20;;
78406;SDS011;67692;51.074;-1.790;2023-07-20T00:36:58;5.22;;;1.70;;
78406;SDS011;67692;51.074;-1.790;2023-07-20T00:39:24;6.03;;;2.03;;
78406;SDS011;67692;51.074;-1.790;2023-07-20T00:41:51;6.63;;;2.22;;
78406;SDS011;67692;51.074;-1.790;2023-07-20T00:44:17;8.70;;;2.15;;
78406;SDS011;67692;51.074;-1.790;2023-07-20T00:46:44;4.65;;;1.85;;
78406;SDS011;67692;51.074;-1.790;2023-07-20T00:49:11;6.75;;;2.00;;
78406;SDS011;67692;51.074;-1.790;2023-07-20T00:51:39;6.95;;;2.35;;
78406;SDS011;67692;51.074;-1.790;2023-07-20T00:54:06;6.43;;;1.92;;
78406;SDS011;67692;51.074;-1.790;2023-07-20T00:56:33;5.13;;;2.15;;
78406;SDS011;67692;51.074;-1.790;2023-07-20T00:59:00;6.22;;;2.22;;
78406;SDS011;67692;51.074;-1.790;2023-07-20T01:01:26;7.78;;;2.65;;
78406;SDS011;67692;51.074;-1.790;2023-07-20T01:03:53;5.68;;;1.80;;
78406;SDS011;67692;51.074;-1.790;2023-07-20T01:06:24;5.28;;;1.95;;
78406;SDS011;67692;51.074;-1.790;2023-07-20T01:09:00;5.00;;;1.83;;
78406;SDS011;67692;51.074;-1.790;2023-07-20T01:11:36;7.00;;;1.90;;
78406;SDS011;67692;51.074;-1.790;2023-07-20T01:14:09;6.90;;;2.13;;
78406;SDS011;67692;51.074;-1.790;2023-07-20T01:16:38;3.45;;;1.80;;
78406;SDS011;67692;51.074;-1.790;2023-07-20T01:19:04;5.05;;;1.80;;
78406;SDS011;67692;51.074;-1.790;2023-07-20T01:21:34;5.07;;;1.67;;
78406;SDS011;67692;51.074;-1.790;2023-07-20T01:24:22;5.82;;;2.50;;
78406;SDS011;67692;51.074;-1.790;2023-07-20T01:30:09;5.35;;;2.47;;
78406;SDS011;67692;51.074;-1.790;2023-07-20T01:32:43;7.05;;;1.88;;
78406;SDS011;67692;51.074;-1.790;2023-07-20T01:35:13;4.53;;;2.00;;
78406;SDS011;67692;51.074;-1.790;2023-07-20T01:37:42;6.07;;;1.70;;
78406;SDS011;67692;51.074;-1.790;2023-07-20T01:40:11;6.55;;;1.77;;
78406;SDS011;67692;51.074;-1.790;2023-07-20T01:42:43;4.32;;;2.08;;
78406;SDS011;67692;51.074;-1.790;2023-07-20T01:45:10;4.20;;;1.88;;
78406;SDS011;67692;51.074;-1.790;2023-07-20T01:47:37;3.03;;;1.70;;
78406;SDS011;67692;51.074;-1.790;2023-07-20T01:50:06;5.00;;;1.73;;
78406;SDS011;67692;51.074;-1.790;2023-07-20T01:52:33;3.92;;;1.73;;
78406;SDS011;67692;51.074;-1.790;2023-07-20T01:54:59;4.03;;;1.70;;
78406;SDS011;67692;51.074;-1.790;2023-07-20T01:57:26;5.03;;;2.03;;
78406;SDS011;67692;51.074;-1.790;2023-07-20T01:59:53;5.72;;;2.28;;
78406;SDS011;67692;51.074;-1.790;2023-07-20T02:02:19;6.18;;;1.92;;
78406;SDS011;67692;51.074;-1.790;2023-07-20T02:04:46;6.65;;;1.83;;
78406;SDS011;67692;51.074;-1.790;2023-07-20T02:07:14;4.68;;;1.70;;
78406;SDS011;67692;51.074;-1.790;2023-07-20T02:09:41;3.97;;;1.98;;
78406;SDS011;67692;51.074;-1.790;2023-07-20T02:12:08;6.10;;;1.85;;
78406;SDS011;67692;51.074;-1.790;2023-07-20T02:14:34;6.20;;;2.05;;
78406;SDS011;67692;51.074;-1.790;2023-07-20T02:17:01;5.45;;;2.17;;
78406;SDS011;67692;51.074;-1.790;2023-07-20T02:19:30;4.47;;;1.55;;
78406;SDS011;67692;51.074;-1.790;2023-07-20T02:21:57;4.72;;;2.00;;
78406;SDS011;67692;51.074;-1.790;2023-07-20T02:24:24;6.82;;;2.30;;
78406;SDS011;67692;51.074;-1.790;2023-07-20T02:26:51;6.10;;;2.45;;
78406;SDS011;67692;51.074;-1.790;2023-07-20T02:29:18;6.55;;;2.05;;
78406;SDS011;67692;51.074;-1.790;2023-07-20T02:31:44;6.43;;;2.47;;
78406;SDS011;67692;51.074;-1.790;2023-07-20T02:34:11;4.57;;;2.10;;
78406;SDS011;67692;51.074;-1.790;2023-07-20T02:36:38;4.18;;;2.28;;
78406;SDS011;67692;51.074;-1.790;2023-07-20T02:39:07;4.60;;;1.85;;
78406;SDS011;67692;51.074;-1.790;2023-07-20T02:41:35;4.85;;;2.55;;
78406;SDS011;67692;51.074;-1.790;2023-07-20T02:44:02;5.80;;;2.00;;
78406;SDS011;67692;51.074;-1.790;2023-07-20T02:46:28;4.93;;;2.17;;
78406;SDS011;67692;51.074;-1.790;2023-07-20T02:48:55;3.03;;;1.52;;
78406;SDS011;67692;51.074;-1.790;2023-07-20T02:51:22;5.45;;;2.10;;
78406;SDS011;67692;51.074;-1.790;2023-07-20T02:53:49;4.10;;;1.70;;
78406;SDS011;67692;51.074;-1.790;2023-07-20T02:56:15;5.43;;;1.75;;
78406;SDS011;67692;51.074;-1.790;2023-07-20T02:58:44;4.18;;;1.70;;
78406;SDS011;67692;51.074;-1.790;2023-07-20T03:01:11;4.32;;;1.85;;
78406;SDS011;67692;51.074;-1.790;2023-07-20T03:03:38;4.53;;;1.98;;
78406;SDS011;67692;51.074;-1.790;2023-07-20T03:06:05;8.80;;;2.13;;
78406;SDS011;67692;51.074;-1.790;2023-07-20T03:08:34;5.13;;;1.92;;
78406;SDS011;67692;51.074;-1.790;2023-07-20T03:11:01;7.18;;;2.15;;
78406;SDS011;67692;51.074;-1.790;2023-07-20T03:13:28;5.88;;;2.20;;
78406;SDS011;67692;51.074;-1.790;2023-07-20T03:15:56;5.90;;;2.10;;
78406;SDS011;67692;51.074;-1.790;2023-07-20T03:18:23;5.78;;;2.03;;
78406;SDS011;67692;51.074;-1.790;2023-07-20T03:20:49;5.82;;;2.45;;
78406;SDS011;67692;51.074;-1.790;2023-07-20T03:23:16;4.25;;;1.95;;
78406;SDS011;67692;51.074;-1.790;2023-07-20T03:25:42;4.43;;;2.08;;
78406;SDS011;67692;51.074;-1.790;2023-07-20T03:28:09;4.95;;;2.20;;
78406;SDS011;67692;51.074;-1.790;2023-07-20T03:30:36;4.03;;;1.88;;
78406;SDS011;67692;51.074;-1.790;2023-07-20T03:33:04;4.95;;;1.90;;
78406;SDS011;67692;51.074;-1.790;2023-07-20T03:35:30;5.00;;;2.00;;
78406;SDS011;67692;51.074;-1.790;2023-07-20T03:37:57;3.75;;;1.83;;
78406;SDS011;67692;51.074;-1.790;2023-07-20T03:40:23;5.05;;;2.00;;
78406;SDS011;67692;51.074;-1.790;2023-07-20T03:42:50;4.20;;;1.73;;
78406;SDS011;67692;51.074;-1.790;2023-07-20T03:45:16;5.68;;;1.80;;
78406;SDS011;67692;51.074;-1.790;2023-07-20T03:47:43;7.38;;;2.17;;
78406;SDS011;67692;51.074;-1.790;2023-07-20T03:50:11;5.80;;;2.00;;
78406;SDS011;67692;51.074;-1.790;2023-07-20T03:52:38;6.35;;;1.90;;
78406;SDS011;67692;51.074;-1.790;2023-07-20T03:55:05;3.88;;;1.67;;
78406;SDS011;67692;51.074;-1.790;2023-07-20T03:57:32;8.65;;;2.38;;
78406;SDS011;67692;51.074;-1.790;2023-07-20T03:59:58;5.07;;;2.00;;
78406;SDS011;67692;51.074;-1.790;2023-07-20T04:02:25;4.07;;;1.95;;
78406;SDS011;67692;51.074;-1.790;2023-07-20T04:04:51;3.58;;;1.65;;
78406;SDS011;67692;51.074;-1.790;2023-07-20T04:07:19;3.85;;;1.50;;
78406;SDS011;67692;51.074;-1.790;2023-07-20T04:09:46;4.32;;;1.55;;
78406;SDS011;67692;51.074;-1.790;2023-07-20T04:12:13;3.30;;;1.70;;
78406;SDS011;67692;51.074;-1.790;2023-07-20T04:14:39;6.05;;;1.67;;
78406;SDS011;67692;51.074;-1.790;2023-07-20T04:17:06;4.38;;;1.63;;
78406;SDS011;67692;51.074;-1.790;2023-07-20T04:19:32;3.83;;;1.85;;
78406;SDS011;67692;51.074;-1.790;2023-07-20T04:21:59;5.95;;;1.58;;
78406;SDS011;67692;51.074;-1.790;2023-07-20T04:24:27;3.78;;;1.77;;
78406;SDS011;67692;51.074;-1.790;2023-07-20T04:26:53;5.60;;;1.40;;
78406;SDS011;67692;51.074;-1.790;2023-07-20T04:29:20;4.78;;;1.88;;
78406;SDS011;67692;51.074;-1.790;2023-07-20T04:31:46;4.03;;;1.70;;
78406;SDS011;67692;51.074;-1.790;2023-07-20T04:34:13;4.28;;;1.85;;
78406;SDS011;67692;51.074;-1.790;2023-07-20T04:36:40;4.25;;;1.70;;
78406;SDS011;67692;51.074;-1.790;2023-07-20T04:39:06;5.82;;;1.70;;
78406;SDS011;67692;51.074;-1.790;2023-07-20T04:41:35;4.63;;;1.45;;
78406;SDS011;67692;51.074;-1.790;2023-07-20T04:44:02;4.35;;;1.52;;
78406;SDS011;67692;51.074;-1.790;2023-07-20T04:46:29;4.07;;;1.63;;
78406;SDS011;67692;51.074;-1.790;2023-07-20T04:48:55;5.40;;;1.73;;
78406;SDS011;67692;51.074;-1.790;2023-07-20T04:51:22;7.45;;;1.50;;
78406;SDS011;67692;51.074;-1.790;2023-07-20T04:53:49;3.53;;;1.45;;
78406;SDS011;67692;51.074;-1.790;2023-07-20T04:56:15;4.65;;;2.00;;
78406;SDS011;67692;51.074;-1.790;2023-07-20T04:58:43;3.53;;;1.73;;
78406;SDS011;67692;51.074;-1.790;2023-07-20T05:01:10;5.05;;;1.73;;
78406;SDS011;67692;51.074;-1.790;2023-07-20T05:03:37;5.38;;;1.98;;
78406;SDS011;67692;51.074;-1.790;2023-07-20T05:06:03;5.80;;;1.67;;
78406;SDS011;67692;51.074;-1.790;2023-07-20T05:08:30;4.00;;;1.77;;
78406;SDS011;67692;51.074;-1.790;2023-07-20T05:10:56;4.93;;;1.80;;
78406;SDS011;67692;51.074;-1.790;2023-07-20T05:13:23;3.20;;;1.85;;
78406;SDS011;67692;51.074;-1.790;2023-07-20T05:15:52;4.30;;;1.73;;
78406;SDS011;67692;51.074;-1.790;2023-07-20T05:18:19;5.35;;;1.80;;
78406;SDS011;67692;51.074;-1.790;2023-07-20T05:20:46;3.53;;;1.60;;
78406;SDS011;67692;51.074;-1.790;2023-07-20T05:23:13;6.47;;;2.10;;
78406;SDS011;67692;51.074;-1.790;2023-07-20T05:25:39;4.60;;;1.90;;
78406;SDS011;67692;51.074;-1.790;2023-07-20T05:28:06;6.32;;;1.33;;
78406;SDS011;67692;51.074;-1.790;2023-07-20T05:30:32;4.00;;;1.77;;
78406;SDS011;67692;51.074;-1.790;2023-07-20T05:33:00;3.95;;;1.90;;
78406;SDS011;67692;51.074;-1.790;2023-07-20T05:35:27;3.97;;;1.65;;
78406;SDS011;67692;51.074;-1.790;2023-07-20T05:37:54;4.47;;;2.08;;
78406;SDS011;67692;51.074;-1.790;2023-07-20T05:40:20;4.53;;;1.63;;
78406;SDS011;67692;51.074;-1.790;2023-07-20T05:42:47;5.07;;;1.77;;
78406;SDS011;67692;51.074;-1.790;2023-07-20T05:45:17;4.03;;;1.73;;
78406;SDS011;67692;51.074;-1.790;2023-07-20T05:47:44;4.60;;;1.50;;
78406;SDS011;67692;51.074;-1.790;2023-07-20T05:50:11;3.72;;;1.80;;
78406;SDS011;67692;51.074;-1.790;2023-07-20T05:52:39;6.35;;;1.83;;
78406;SDS011;67692;51.074;-1.790;2023-07-20T05:55:06;6.22;;;1.73;;
78406;SDS011;67692;51.074;-1.790;2023-07-20T05:57:33;4.25;;;1.75;;
78406;SDS011;67692;51.074;-1.790;2023-07-20T06:00:00;5.88;;;1.70;;
78406;SDS011;67692;51.074;-1.790;2023-07-20T06:02:28;6.38;;;1.90;;
78406;SDS011;67692;51.074;-1.790;2023-07-20T06:04:54;4.72;;;1.90;;
78406;SDS011;67692;51.074;-1.790;2023-07-20T06:07:23;3.63;;;1.75;;
78406;SDS011;67692;51.074;-1.790;2023-07-20T06:09:49;3.47;;;1.92;;
78406;SDS011;67692;51.074;-1.790;2023-07-20T06:12:16;3.95;;;1.75;;
78406;SDS011;67692;51.074;-1.790;2023-07-20T06:14:42;4.53;;;1.58;;
78406;SDS011;67692;51.074;-1.790;2023-07-20T06:17:09;6.07;;;2.15;;
78406;SDS011;67692;51.074;-1.790;2023-07-20T06:19:36;6.75;;;1.63;;
78406;SDS011;67692;51.074;-1.790;2023-07-20T06:22:02;6.15;;;1.50;;
78406;SDS011;67692;51.074;-1.790;2023-07-20T06:24:31;4.80;;;1.48;;
78406;SDS011;67692;51.074;-1.790;2023-07-20T06:26:57;6.05;;;1.85;;
78406;SDS011;67692;51.074;-1.790;2023-07-20T06:29:24;6.63;;;2.15;;
78406;SDS011;67692;51.074;-1.790;2023-07-20T06:31:50;5.28;;;2.10;;
78406;SDS011;67692;51.074;-1.790;2023-07-20T06:34:18;5.50;;;1.70;;
78406;SDS011;67692;51.074;-1.790;2023-07-20T06:36:45;5.35;;;2.00;;
78406;SDS011;67692;51.074;-1.790;2023-07-20T06:39:11;11.38;;;2.00;;
78406;SDS011;67692;51.074;-1.790;2023-07-20T06:41:40;4.97;;;1.60;;
78406;SDS011;67692;51.074;-1.790;2023-07-20T06:44:07;4.80;;;1.77;;
78406;SDS011;67692;51.074;-1.790;2023-07-20T06:46:34;6.28;;;1.75;;
78406;SDS011;67692;51.074;-1.790;2023-07-20T06:49:00;3.95;;;1.80;;
78406;SDS011;67692;51.074;-1.790;2023-07-20T06:51:27;3.05;;;1.33;;
78406;SDS011;67692;51.074;-1.790;2023-07-20T06:53:53;6.18;;;1.95;;
78406;SDS011;67692;51.074;-1.790;2023-07-20T06:56:20;4.65;;;1.80;;
78406;SDS011;67692;51.074;-1.790;2023-07-20T06:58:48;3.67;;;1.52;;
78406;SDS011;67692;51.074;-1.790;2023-07-20T07:01:14;3.10;;;1.48;;
78406;SDS011;67692;51.074;-1.790;2023-07-20T07:03:42;4.28;;;1.50;;
78406;SDS011;67692;51.074;-1.790;2023-07-20T07:06:09;3.13;;;1.50;;
78406;SDS011;67692;51.074;-1.790;2023-07-20T07:08:35;4.22;;;1.85;;
78406;SDS011;67692;51.074;-1.790;2023-07-20T07:11:02;3.65;;;1.25;;
78406;SDS011;67692;51.074;-1.790;2023-07-20T07:13:29;3.47;;;1.33;;
78406;SDS011;67692;51.074;-1.790;2023-07-20T07:15:57;3.22;;;1.40;;
78406;SDS011;67692;51.074;-1.790;2023-07-20T07:18:23;3.38;;;1.40;;
78406;SDS011;67692;51.074;-1.790;2023-07-20T07:20:51;4.95;;;1.60;;
78406;SDS011;67692;51.074;-1.790;2023-07-20T07:23:19;5.78;;;1.60;;
78406;SDS011;67692;51.074;-1.790;2023-07-20T07:25:45;5.13;;;1.67;;
78406;SDS011;67692;51.074;-1.790;2023-07-20T07:28:12;3.50;;;1.45;;
78406;SDS011;67692;51.074;-1.790;2023-07-20T07:30:39;3.38;;;1.30;;
78406;SDS011;67692;51.074;-1.790;2023-07-20T07:33:07;4.20;;;1.58;;
78406;SDS011;67692;51.074;-1.790;2023-07-20T07:35:35;4.97;;;1.40;;
78406;SDS011;67692;51.074;-1.790;2023-07-20T07:38:01;4.55;;;1.70;;
78406;SDS011;67692;51.074;-1.790;2023-07-20T07:40:28;4.18;;;1.33;;
78406;SDS011;67692;51.074;-1.790;2023-07-20T07:42:54;4.80;;;1.95;;
78406;SDS011;67692;51.074;-1.790;2023-07-20T07:45:21;3.50;;;1.60;;
78406;SDS011;67692;51.074;-1.790;2023-07-20T07:47:48;3.53;;;1.45;;
78406;SDS011;67692;51.074;-1.790;2023-07-20T07:50:16;5.10;;;1.38;;
78406;SDS011;67692;51.074;-1.790;2023-07-20T07:52:42;5.25;;;1.80;;
78406;SDS011;67692;51.074;-1.790;2023-07-20T07:55:09;3.22;;;1.27;;
78406;SDS011;67692;51.074;-1.790;2023-07-20T07:57:35;4.78;;;1.40;;
78406;SDS011;67692;51.074;-1.790;2023-07-20T08:00:02;4.10;;;1.70;;
78406;SDS011;67692;51.074;-1.790;2023-07-20T08:02:31;3.00;;;1.20;;
78406;SDS011;67692;51.074;-1.790;2023-07-20T08:04:58;5.20;;;1.55;;
78406;SDS011;67692;51.074;-1.790;2023-07-20T08:07:27;5.70;;;2.28;;
78406;SDS011;67692;51.074;-1.790;2023-07-20T08:09:53;3.60;;;1.42;;
78406;SDS011;67692;51.074;-1.790;2023-07-20T08:12:20;4.68;;;1.73;;
78406;SDS011;67692;51.074;-1.790;2023-07-20T08:14:47;3.35;;;1.50;;
78406;SDS011;67692;51.074;-1.790;2023-07-20T08:17:14;3.75;;;1.63;;
78406;SDS011;67692;51.074;-1.790;2023-07-20T08:19:40;5.03;;;1.30;;
78406;SDS011;67692;51.074;-1.790;2023-07-20T08:22:07;4.75;;;1.70;;
78406;SDS011;67692;51.074;-1.790;2023-07-20T08:24:35;7.57;;;1.65;;
78406;SDS011;67692;51.074;-1.790;2023-07-20T08:27:05;6.93;;;1.38;;
78406;SDS011;67692;51.074;-1.790;2023-07-20T08:29:33;2.42;;;1.35;;
78406;SDS011;67692;51.074;-1.790;2023-07-20T08:32:00;3.75;;;1.50;;
78406;SDS011;67692;51.074;-1.790;2023-07-20T08:34:26;3.17;;;1.20;;
78406;SDS011;67692;51.074;-1.790;2023-07-20T08:36:53;3.40;;;1.30;;
78406;SDS011;67692;51.074;-1.790;2023-07-20T08:39:20;3.28;;;1.17;;
78406;SDS011;67692;51.074;-1.790;2023-07-20T08:41:48;3.03;;;1.17;;
78406;SDS011;67692;51.074;-1.790;2023-07-20T08:44:16;2.55;;;1.25;;
78406;SDS011;67692;51.074;-1.790;2023-07-20T08:46:43;8.32;;;2.90;;
78406;SDS011;67692;51.074;-1.790;2023-07-20T08:49:11;3.47;;;1.20;;
78406;SDS011;67692;51.074;-1.790;2023-07-20T08:51:37;3.38;;;1.25;;
78406;SDS011;67692;51.074;-1.790;2023-07-20T08:54:05;7.40;;;1.77;;
78406;SDS011;67692;51.074;-1.790;2023-07-20T08:56:33;5.32;;;1.40;;
78406;SDS011;67692;51.074;-1.790;2023-07-20T08:59:02;4.07;;;1.55;;
78406;SDS011;67692;51.074;-1.790;2023-07-20T09:01:29;2.67;;;1.05;;
78406;SDS011;67692;51.074;-1.790;2023-07-20T09:03:57;3.97;;;1.23;;
78406;SDS011;67692;51.074;-1.790;2023-07-20T09:06:24;3.85;;;1.42;;
78406;SDS011;67692;51.074;-1.790;2023-07-20T09:08:50;3.13;;;1.13;;
78406;SDS011;67692;51.074;-1.790;2023-07-20T09:11:17;5.03;;;1.35;;
78406;SDS011;67692;51.074;-1.790;2023-07-20T09:13:43;2.80;;;1.25;;
78406;SDS011;67692;51.074;-1.790;2023-07-20T09:16:13;2.90;;;1.02;;
78406;SDS011;67692;51.074;-1.790;2023-07-20T09:18:40;3.60;;;1.10;;
78406;SDS011;67692;51.074;-1.790;2023-07-20T09:21:07;4.40;;;1.33;;
78406;SDS011;67692;51.074;-1.790;2023-07-20T09:23:34;3.60;;;1.45;;
78406;SDS011;67692;51.074;-1.790;2023-07-20T09:26:04;5.72;;;1.52;;
78406;SDS011;67692;51.074;-1.790;2023-07-20T09:28:39;2.58;;;1.10;;
78406;SDS011;67692;51.074;-1.790;2023-07-20T09:31:14;3.55;;;1.27;;
78406;SDS011;67692;51.074;-1.790;2023-07-20T09:33:42;1.73;;;0.82;;
78406;SDS011;67692;51.074;-1.790;2023-07-20T09:36:09;3.45;;;1.00;;
78406;SDS011;67692;51.074;-1.790;2023-07-20T09:38:36;1.92;;;0.75;;
78406;SDS011;67692;51.074;-1.790;2023-07-20T09:41:04;2.95;;;1.05;;
78406;SDS011;67692;51.074;-1.790;2023-07-20T09:43:31;2.88;;;0.90;;
78406;SDS011;67692;51.074;-1.790;2023-07-20T09:46:00;1.85;;;0.73;;
78406;SDS011;67692;51.074;-1.790;2023-07-20T09:48:29;2.05;;;1.08;;
78406;SDS011;67692;51.074;-1.790;2023-07-20T09:50:56;3.08;;;1.08;;
78406;SDS011;67692;51.074;-1.790;2023-07-20T09:53:24;2.65;;;1.10;;
78406;SDS011;67692;51.074;-1.790;2023-07-20T09:55:52;2.05;;;1.00;;
78406;SDS011;67692;51.074;-1.790;2023-07-20T09:58:19;1.55;;;0.95;;
78406;SDS011;67692;51.074;-1.790;2023-07-20T10:00:46;2.60;;;0.90;;
78406;SDS011;67692;51.074;-1.790;2023-07-20T10:03:18;2.25;;;1.23;;
78406;SDS011;67692;51.074;-1.790;2023-07-20T10:05:47;3.33;;;1.13;;
78406;SDS011;67692;51.074;-1.790;2023-07-20T10:08:17;2.97;;;1.20;;
78406;SDS011;67692;51.074;-1.790;2023-07-20T10:10:49;3.05;;;0.88;;
78406;SDS011;67692;51.074;-1.790;2023-07-20T10:13:17;1.90;;;0.90;;
78406;SDS011;67692;51.074;-1.790;2023-07-20T10:15:46;2.33;;;0.90;;
78406;SDS011;67692;51.074;-1.790;2023-07-20T10:18:17;2.70;;;1.00;;
78406;SDS011;67692;51.074;-1.790;2023-07-20T10:20:52;3.13;;;0.90;;
78406;SDS011;67692;51.074;-1.790;2023-07-20T10:23:21;2.03;;;0.90;;
78406;SDS011;67692;51.074;-1.790;2023-07-20T10:25:48;2.20;;;1.00;;
78406;SDS011;67692;51.074;-1.790;2023-07-20T10:28:16;2.97;;;1.10;;
78406;SDS011;67692;51.074;-1.790;2023-07-20T10:30:42;2.55;;;1.08;;
78406;SDS011;67692;51.074;-1.790;2023-07-20T10:33:10;2.75;;;1.25;;
78406;SDS011;67692;51.074;-1.790;2023-07-20T10:35:52;3.78;;;1.00;;
78406;SDS011;67692;51.074;-1.790;2023-07-20T10:40:53;4.60;;;1.42;;
78406;SDS011;67692;51.074;-1.790;2023-07-20T10:43:20;3.45;;;0.80;;
78406;SDS011;67692;51.074;-1.790;2023-07-20T10:45:48;3.58;;;0.88;;
78406;SDS011;67692;51.074;-1.790;2023-07-20T10:48:16;4.38;;;1.08;;
78406;SDS011;67692;51.074;-1.790;2023-07-20T10:50:44;1.38;;;0.73;;
78406;SDS011;67692;51.074;-1.790;2023-07-20T10:53:14;5.20;;;1.10;;
78406;SDS011;67692;51.074;-1.790;2023-07-20T10:55:42;3.28;;;0.90;;
78406;SDS011;67692;51.074;-1.790;2023-07-20T10:58:11;2.40;;;0.90;;
78406;SDS011;67692;51.074;-1.790;2023-07-20T11:03:29;1.77;;;0.80;;
78406;SDS011;67692;51.074;-1.790;2023-07-20T11:05:57;2.17;;;0.80;;
78406;SDS011;67692;51.074;-1.790;2023-07-20T11:08:41;2.95;;;0.90;;
78406;SDS011;67692;51.074;-1.790;2023-07-20T11:13:54;2.55;;;0.90;;
78406;SDS011;67692;51.074;-1.790;2023-07-20T11:16:37;3.10;;;0.90;;
78406;SDS011;67692;51.074;-1.790;2023-07-20T11:19:05;2.85;;;0.98;;
78406;SDS011;67692;51.074;-1.790;2023-07-20T11:21:40;2.85;;;0.70;;
78406;SDS011;67692;51.074;-1.790;2023-07-20T11:24:09;2.60;;;0.82;;
78406;SDS011;67692;51.074;-1.790;2023-07-20T11:26:44;2.80;;;0.90;;
78406;SDS011;67692;51.074;-1.790;2023-07-20T11:29:13;2.22;;;0.80;;
78406;SDS011;67692;51.074;-1.790;2023-07-20T11:31:40;3.13;;;1.10;;
78406;SDS011;67692;51.074;-1.790;2023-07-20T11:34:09;1.67;;;0.80;;
78406;SDS011;67692;51.074;-1.790;2023-07-20T11:36:38;1.88;;;1.00;;
78406;SDS011;67692;51.074;-1.790;2023-07-20T11:39:06;2.53;;;0.90;;
78406;SDS011;67692;51.074;-1.790;2023-07-20T11:41:35;1.50;;;0.80;;
78406;SDS011;67692;51.074;-1.790;2023-07-20T11:44:03;2.28;;;1.00;;
78406;SDS011;67692;51.074;-1.790;2023-07-20T11:46:31;2.38;;;0.98;;
78406;SDS011;67692;51.074;-1.790;2023-07-20T11:48:59;2.97;;;1.10;;
78406;SDS011;67692;51.074;-1.790;2023-07-20T11:51:26;3.35;;;1.02;;
78406;SDS011;67692;51.074;-1.790;2023-07-20T11:53:53;1.98;;;0.90;;
78406;SDS011;67692;51.074;-1.790;2023-07-20T11:56:20;3.90;;;0.75;;
78406;SDS011;67692;51.074;-1.790;2023-07-20T11:58:50;2.88;;;1.10;;
78406;SDS011;67692;51.074;-1.790;2023-07-20T12:01:20;1.63;;;0.90;;
78406;SDS011;67692;51.074;-1.790;2023-07-20T12:03:47;1.83;;;1.00;;
78406;SDS011;67692;51.074;-1.790;2023-07-20T12:06:15;1.90;;;0.90;;
78406;SDS011;67692;51.074;-1.790;2023-07-20T12:08:42;5.15;;;1.00;;
78406;SDS011;67692;51.074;-1.790;2023-07-20T12:11:09;2.47;;;0.90;;
78406;SDS011;67692;51.074;-1.790;2023-07-20T12:13:39;2.97;;;0.80;;
78406;SDS011;67692;51.074;-1.790;2023-07-20T12:16:11;3.35;;;0.90;;
78406;SDS011;67692;51.074;-1.790;2023-07-20T12:18:39;6.38;;;1.95;;
78406;SDS011;67692;51.074;-1.790;2023-07-20T12:21:06;3.33;;;0.80;;
78406;SDS011;67692;51.074;-1.790;2023-07-20T12:23:37;1.95;;;0.80;;
78406;SDS011;67692;51.074;-1.790;2023-07-20T12:26:06;2.38;;;0.90;;
78406;SDS011;67692;51.074;-1.790;2023-07-20T12:28:33;1.85;;;0.95;;
78406;SDS011;67692;51.074;-1.790;2023-07-20T12:30:59;1.42;;;0.80;;
78406;SDS011;67692;51.074;-1.790;2023-07-20T12:33:27;2.28;;;0.90;;
78406;SDS011;67692;51.074;-1.790;2023-07-20T12:35:54;3.97;;;0.80;;
78406;SDS011;67692;51.074;-1.790;2023-07-20T12:38:23;2.75;;;0.80;;
78406;SDS011;67692;51.074;-1.790;2023-07-20T12:40:50;1.85;;;0.90;;
78406;SDS011;67692;51.074;-1.790;2023-07-20T12:43:17;3.75;;;1.10;;
78406;SDS011;67692;51.074;-1.790;2023-07-20T12:45:43;1.13;;;0.70;;
78406;SDS011;67692;51.074;-1.790;2023-07-20T12:48:10;3.35;;;1.10;;
78406;SDS011;67692;51.074;-1.790;2023-07-20T12:50:38;1.85;;;1.00;;
78406;SDS011;67692;51.074;-1.790;2023-07-20T12:53:04;3.15;;;1.08;;
78406;SDS011;67692;51.074;-1.790;2023-07-20T12:55:31;2.47;;;1.10;;
78406;SDS011;67692;51.074;-1.790;2023-07-20T12:57:58;2.20;;;0.90;;
78406;SDS011;67692;51.074;-1.790;2023-07-20T13:00:25;2.50;;;0.82;;
78406;SDS011;67692;51.074;-1.790;2023-07-20T13:02:51;2.88;;;0.88;;
78406;SDS011;67692;51.074;-1.790;2023-07-20T13:05:18;3.00;;;0.90;;
78406;SDS011;67692;51.074;-1.790;2023-07-20T13:07:46;1.80;;;0.95;;
78406;SDS011;67692;51.074;-1.790;2023-07-20T13:10:12;3.20;;;1.00;;
78406;SDS011;67692;51.074;-1.790;2023-07-20T13:12:39;3.08;;;0.88;;
78406;SDS011;67692;51.074;-1.790;2023-07-20T13:15:06;1.92;;;0.65;;
78406;SDS011;67692;51.074;-1.790;2023-07-20T13:17:34;1.45;;;0.88;;
78406;SDS011;67692;51.074;-1.790;2023-07-20T13:20:02;1.95;;;0.75;;
78406;SDS011;67692;51.074;-1.790;2023-07-20T13:22:29;1.42;;;0.60;;
78406;SDS011;67692;51.074;-1.790;2023-07-20T13:24:57;2.33;;;0.88;;
78406;SDS011;67692;51.074;-1.790;2023-07-20T13:27:24;3.03;;;0.90;;
78406;SDS011;67692;51.074;-1.790;2023-07-20T13:29:51;1.92;;;0.98;;
78406;SDS011;67692;51.074;-1.790;2023-07-20T13:32:18;1.88;;;0.82;;
78406;SDS011;67692;51.074;-1.790;2023-07-20T13:34:45;2.13;;;1.08;;
78406;SDS011;67692;51.074;-1.790;2023-07-20T13:37:13;1.55;;;0.85;;
78406;SDS011;67692;51.074;-1.790;2023-07-20T13:39:41;1.88;;;1.05;;
78406;SDS011;67692;51.074;-1.790;2023-07-20T13:42:10;2.47;;;0.90;;
78406;SDS011;67692;51.074;-1.790;2023-07-20T13:44:37;2.97;;;0.85;;
78406;SDS011;67692;51.074;-1.790;2023-07-20T13:47:04;2.33;;;0.98;;
78406;SDS011;67692;51.074;-1.790;2023-07-20T13:49:31;2.72;;;1.10;;
78406;SDS011;67692;51.074;-1.790;2023-07-20T13:51:58;1.88;;;0.98;;
78406;SDS011;67692;51.074;-1.790;2023-07-20T13:54:25;1.40;;;0.80;;
78406;SDS011;67692;51.074;-1.790;2023-07-20T13:56:51;1.63;;;0.85;;
78406;SDS011;67692;51.074;-1.790;2023-07-20T13:59:19;1.75;;;0.77;;
78406;SDS011;67692;51.074;-1.790;2023-07-20T14:01:46;4.30;;;1.00;;
78406;SDS011;67692;51.074;-1.790;2023-07-20T14:04:13;2.33;;;1.00;;
78406;SDS011;67692;51.074;-1.790;2023-07-20T14:06:39;3.83;;;1.05;;
78406;SDS011;67692;51.074;-1.790;2023-07-20T14:09:06;1.80;;;0.85;;
78406;SDS011;67692;51.074;-1.790;2023-07-20T14:11:33;3.83;;;0.95;;
78406;SDS011;67692;51.074;-1.790;2023-07-20T14:13:58;5.40;;;1.00;;
78406;SDS011;67692;51.074;-1.790;2023-07-20T14:16:26;1.58;;;0.85;;
78406;SDS011;67692;51.074;-1.790;2023-07-20T14:18:53;3.05;;;0.90;;
78406;SDS011;67692;51.074;-1.790;2023-07-20T14:21:20;2.33;;;0.95;;
78406;SDS011;67692;51.074;-1.790;2023-07-20T14:23:49;2.35;;;0.80;;
78406;SDS011;67692;51.074;-1.790;2023-07-20T14:26:17;2.05;;;0.93;;
78406;SDS011;67692;51.074;-1.790;2023-07-20T14:28:43;1.73;;;0.90;;
78406;SDS011;67692;51.074;-1.790;2023-07-20T14:31:10;1.40;;;0.88;;
78406;SDS011;67692;51.074;-1.790;2023-07-20T14:33:38;2.47;;;1.00;;
78406;SDS011;67692;51.074;-1.790;2023-07-20T14:36:04;2.10;;;1.00;;
78406;SDS011;67692;51.074;-1.790;2023-07-20T14:38:34;1.58;;;0.90;;
78406;SDS011;67692;51.074;-1.790;2023-07-20T14:41:01;1.65;;;0.85;;
78406;SDS011;67692;51.074;-1.790;2023-07-20T14:43:28;2.42;;;0.90;;
78406;SDS011;67692;51.074;-1.790;2023-07-20T14:45:55;3.80;;;0.98;;